sensor_id;sensor_type;location;lat;lon;timestamp;pressure;altitude;pressure_sealevel;temperature;humidity
67842;BME280;54642;59.126;37.876;2023-04-01T00:00:58;98851.75;;;1.84;62.54
67842;BME280;54642;59.126;37.876;2023-04-01T00:03:25;98796.91;;;1.49;62.47
67842;BME280;54642;59.126;37.876;2023-04-01T00:05:53;98802.84;;;1.50;62.56
67842;BME280;54642;59.126;37.876;2023-04-01T00:08:20;98824.31;;;1.63;62.43
67842;BME280;54642;59.126;37.876;2023-04-01T00:10:46;98820.75;;;1.51;62.52
67842;BME280;54642;59.126;37.876;2023-04-01T00:13:12;98850.72;;;1.66;62.71
67842;BME280;54642;59.126;37.876;2023-04-01T00:15:39;98846.41;;;1.59;62.80
67842;BME280;54642;59.126;37.876;2023-04-01T00:18:05;98787.25;;;1.24;62.98
67842;BME280;54642;59.126;37.876;2023-04-01T00:20:31;98824.84;;;1.39;62.85
67842;BME280;54642;59.126;37.876;2023-04-01T00:22:57;98835.13;;;1.43;63.15
67842;BME280;54642;59.126;37.876;2023-04-01T00:25:24;98866.75;;;1.55;63.19
67842;BME280;54642;59.126;37.876;2023-04-01T00:27:50;98835.97;;;1.42;63.30
67842;BME280;54642;59.126;37.876;2023-04-01T00:30:16;98858.19;;;1.51;63.41
67842;BME280;54642;59.126;37.876;2023-04-01T00:32:43;98841.13;;;1.47;63.32
67842;BME280;54642;59.126;37.876;2023-04-01T00:35:09;98809.34;;;1.22;63.29
67842;BME280;54642;59.126;37.876;2023-04-01T00:37:38;98841.13;;;1.48;63.28
67842;BME280;54642;59.126;37.876;2023-04-01T00:40:11;98825.59;;;1.30;63.31
67842;BME280;54642;59.126;37.876;2023-04-01T00:42:46;98841.13;;;1.45;63.36
67842;BME280;54642;59.126;37.876;2023-04-01T00:45:32;98795.63;;;1.13;63.54
67842;BME280;54642;59.126;37.876;2023-04-01T00:48:04;98823.91;;;1.29;63.18
67842;BME280;54642;59.126;37.876;2023-04-01T00:50:32;98800.81;;;1.18;63.32
67842;BME280;54642;59.126;37.876;2023-04-01T00:53:01;98813.56;;;1.18;63.37
67842;BME280;54642;59.126;37.876;2023-04-01T00:55:32;98759.56;;;0.84;63.50
67842;BME280;54642;59.126;37.876;2023-04-01T00:58:00;98807.38;;;1.01;63.41
67842;BME280;54642;59.126;37.876;2023-04-01T01:00:28;98784.22;;;0.87;63.66
67842;BME280;54642;59.126;37.876;2023-04-01T01:02:54;98824.47;;;1.06;63.83
67842;BME280;54642;59.126;37.876;2023-04-01T01:05:30;98799.47;;;0.84;63.74
67842;BME280;54642;59.126;37.876;2023-04-01T01:08:14;98827.91;;;1.10;63.70
67842;BME280;54642;59.126;37.876;2023-04-01T01:10:42;98743.78;;;0.50;63.40
67842;BME280;54642;59.126;37.876;2023-04-01T01:13:33;98855.25;;;1.19;63.66
67842;BME280;54642;59.126;37.876;2023-04-01T01:16:29;98849.28;;;1.20;63.83
67842;BME280;54642;59.126;37.876;2023-04-01T01:31:25;98822.50;;;0.88;63.98
67842;BME280;54642;59.126;37.876;2023-04-01T01:36:32;98843.81;;;0.92;63.97
67842;BME280;54642;59.126;37.876;2023-04-01T01:39:06;98859.97;;;0.92;63.97
67842;BME280;54642;59.126;37.876;2023-04-01T01:41:34;98842.69;;;0.73;64.24
67842;BME280;54642;59.126;37.876;2023-04-01T01:44:02;98814.47;;;0.59;63.99
67842;BME280;54642;59.126;37.876;2023-04-01T01:46:30;98851.22;;;0.73;64.03
67842;BME280;54642;59.126;37.876;2023-04-01T01:48:57;98838.38;;;0.69;64.26
67842;BME280;54642;59.126;37.876;2023-04-01T01:51:27;98851.06;;;0.66;64.05
67842;BME280;54642;59.126;37.876;2023-04-01T01:53:54;98827.16;;;0.57;64.41
67842;BME280;54642;59.126;37.876;2023-04-01T01:56:23;98851.00;;;0.60;64.50
67842;BME280;54642;59.126;37.876;2023-04-01T01:59:03;98845.84;;;0.56;64.49
67842;BME280;54642;59.126;37.876;2023-04-01T02:01:35;98802.00;;;0.24;64.50
67842;BME280;54642;59.126;37.876;2023-04-01T02:04:10;98829.63;;;0.53;64.38
67842;BME280;54642;59.126;37.876;2023-04-01T02:06:38;98724.97;;;-0.16;64.40
67842;BME280;54642;59.126;37.876;2023-04-01T02:09:08;98817.09;;;0.12;64.78
67842;BME280;54642;59.126;37.876;2023-04-01T02:11:47;98770.25;;;0.02;64.79
67842;BME280;54642;59.126;37.876;2023-04-01T02:14:17;98844.66;;;0.37;64.77
67842;BME280;54642;59.126;37.876;2023-04-01T02:17:00;98769.34;;;0.02;64.83
67842;BME280;54642;59.126;37.876;2023-04-01T02:19:33;98791.69;;;0.16;64.82
67842;BME280;54642;59.126;37.876;2023-04-01T02:22:03;98762.53;;;-0.01;64.84
67842;BME280;54642;59.126;37.876;2023-04-01T02:24:35;98827.59;;;0.32;64.91
67842;BME280;54642;59.126;37.876;2023-04-01T02:27:01;98815.56;;;0.23;64.84
67842;BME280;54642;59.126;37.876;2023-04-01T02:29:29;98721.88;;;-0.47;64.92
67842;BME280;54642;59.126;37.876;2023-04-01T02:31:55;98830.84;;;0.23;65.14
67842;BME280;54642;59.126;37.876;2023-04-01T02:34:23;98787.13;;;-0.03;65.16
67842;BME280;54642;59.126;37.876;2023-04-01T02:36:51;98820.63;;;0.20;65.39
67842;BME280;54642;59.126;37.876;2023-04-01T02:39:17;98778.66;;;-0.01;65.25
67842;BME280;54642;59.126;37.876;2023-04-01T02:41:45;98762.28;;;-0.16;65.34
67842;BME280;54642;59.126;37.876;2023-04-01T02:44:13;98746.06;;;-0.23;65.14
67842;BME280;54642;59.126;37.876;2023-04-01T02:46:39;98814.47;;;0.09;65.38
67842;BME280;54642;59.126;37.876;2023-04-01T02:49:05;98769.03;;;-0.18;65.42
67842;BME280;54642;59.126;37.876;2023-04-01T02:51:31;98710.69;;;-0.56;65.74
67842;BME280;54642;59.126;37.876;2023-04-01T02:53:57;98834.16;;;0.17;65.53
67842;BME280;54642;59.126;37.876;2023-04-01T02:56:23;98783.66;;;-0.07;65.59
67842;BME280;54642;59.126;37.876;2023-04-01T02:58:49;98796.41;;;-0.07;65.82
67842;BME280;54642;59.126;37.876;2023-04-01T03:01:16;98826.31;;;0.04;65.61
67842;BME280;54642;59.126;37.876;2023-04-01T03:03:42;98786.06;;;-0.14;65.72
67842;BME280;54642;59.126;37.876;2023-04-01T03:06:10;98811.81;;;0.01;65.69
67842;BME280;54642;59.126;37.876;2023-04-01T03:08:36;98859.56;;;0.13;65.85
67842;BME280;54642;59.126;37.876;2023-04-01T03:11:02;98792.97;;;-0.09;66.02
67842;BME280;54642;59.126;37.876;2023-04-01T03:13:30;98813.41;;;-0.04;66.01
67842;BME280;54642;59.126;37.876;2023-04-01T03:15:56;98771.50;;;-0.23;66.01
67842;BME280;54642;59.126;37.876;2023-04-01T03:18:22;98823.91;;;0.13;65.89
67842;BME280;54642;59.126;37.876;2023-04-01T03:20:48;98718.41;;;-0.52;65.82
67842;BME280;54642;59.126;37.876;2023-04-01T03:23:14;98813.44;;;-0.03;66.05
67842;BME280;54642;59.126;37.876;2023-04-01T03:25:42;98803.25;;;-0.03;66.08
67842;BME280;54642;59.126;37.876;2023-04-01T03:28:08;98801.50;;;-0.07;65.92
67842;BME280;54642;59.126;37.876;2023-04-01T03:30:36;98743.28;;;-0.35;66.07
67842;BME280;54642;59.126;37.876;2023-04-01T03:33:02;98823.91;;;0.13;65.99
67842;BME280;54642;59.126;37.876;2023-04-01T03:35:30;98817.00;;;0.06;66.11
67842;BME280;54642;59.126;37.876;2023-04-01T03:37:56;98826.34;;;0.07;66.14
67842;BME280;54642;59.126;37.876;2023-04-01T03:40:22;98820.31;;;0.03;66.32
67842;BME280;54642;59.126;37.876;2023-04-01T03:42:49;98735.28;;;-0.55;66.13
67842;BME280;54642;59.126;37.876;2023-04-01T03:45:15;98796.13;;;-0.22;66.28
67842;BME280;54642;59.126;37.876;2023-04-01T03:47:41;98798.69;;;-0.21;66.20
67842;BME280;54642;59.126;37.876;2023-04-01T03:50:08;98811.53;;;-0.16;66.34
67842;BME280;54642;59.126;37.876;2023-04-01T03:52:35;98826.97;;;-0.07;66.47
67842;BME280;54642;59.126;37.876;2023-04-01T03:55:02;98786.16;;;-0.10;66.40
67842;BME280;54642;59.126;37.876;2023-04-01T03:57:31;98682.41;;;-0.72;66.28
67842;BME280;54642;59.126;37.876;2023-04-01T04:00:01;98812.72;;;0.05;66.40
67842;BME280;54642;59.126;37.876;2023-04-01T04:02:28;98825.56;;;0.12;66.39
67842;BME280;54642;59.126;37.876;2023-04-01T04:04:54;98817.03;;;0.09;66.20
67842;BME280;54642;59.126;37.876;2023-04-01T04:07:21;98829.81;;;0.12;66.12
67842;BME280;54642;59.126;37.876;2023-04-01T04:09:59;98818.06;;;0.18;66.23
67842;BME280;54642;59.126;37.876;2023-04-01T04:12:25;98799.03;;;-0.01;65.94
67842;BME280;54642;59.126;37.876;2023-04-01T04:14:51;98757.94;;;-0.22;65.99
67842;BME280;54642;59.126;37.876;2023-04-01T04:17:17;98848.31;;;0.52;65.91
67842;BME280;54642;59.126;37.876;2023-04-01T04:19:43;98815.66;;;0.28;65.63
67842;BME280;54642;59.126;37.876;2023-04-01T04:22:10;98864.59;;;0.60;65.82
67842;BME280;54642;59.126;37.876;2023-04-01T04:24:36;98814.84;;;0.29;65.64
67842;BME280;54642;59.126;37.876;2023-04-01T04:27:08;98791.66;;;0.15;65.83
67842;BME280;54642;59.126;37.876;2023-04-01T04:29:40;98848.41;;;0.58;66.06
67842;BME280;54642;59.126;37.876;2023-04-01T04:32:07;98827.34;;;0.68;65.99
67842;BME280;54642;59.126;37.876;2023-04-01T04:34:32;98849.63;;;0.83;65.65
67842;BME280;54642;59.126;37.876;2023-04-01T04:36:58;98850.53;;;0.87;65.77
67842;BME280;54642;59.126;37.876;2023-04-01T04:39:29;98782.78;;;0.43;65.60
67842;BME280;54642;59.126;37.876;2023-04-01T04:41:55;98802.59;;;0.64;65.85
67842;BME280;54642;59.126;37.876;2023-04-01T04:44:21;98802.59;;;0.64;65.67
67842;BME280;54642;59.126;37.876;2023-04-01T04:46:47;98865.28;;;1.06;65.58
67842;BME280;54642;59.126;37.876;2023-04-01T04:49:15;98851.75;;;1.12;65.18
67842;BME280;54642;59.126;37.876;2023-04-01T04:51:41;98821.78;;;0.97;65.51
67842;BME280;54642;59.126;37.876;2023-04-01T04:54:07;98860.41;;;1.25;65.27
67842;BME280;54642;59.126;37.876;2023-04-01T04:56:46;98821.91;;;1.06;65.40
67842;BME280;54642;59.126;37.876;2023-04-01T04:59:12;98868.31;;;1.43;65.16
67842;BME280;54642;59.126;37.876;2023-04-01T05:01:44;98834.13;;;1.32;65.17
67842;BME280;54642;59.126;37.876;2023-04-01T05:04:09;98863.34;;;1.56;64.89
67842;BME280;54642;59.126;37.876;2023-04-01T05:06:36;98841.03;;;1.41;64.98
67842;BME280;54642;59.126;37.876;2023-04-01T05:09:02;98836.00;;;1.45;64.82
67842;BME280;54642;59.126;37.876;2023-04-01T05:11:28;98877.94;;;1.63;65.23
67842;BME280;54642;59.126;37.876;2023-04-01T05:13:55;98762.38;;;1.06;65.01
67842;BME280;54642;59.126;37.876;2023-04-01T05:16:20;98870.38;;;1.74;64.86
67842;BME280;54642;59.126;37.876;2023-04-01T05:18:47;98799.09;;;1.19;64.69
67842;BME280;54642;59.126;37.876;2023-04-01T05:21:14;98832.69;;;1.56;64.74
67842;BME280;54642;59.126;37.876;2023-04-01T05:23:41;98875.63;;;1.84;64.78
67842;BME280;54642;59.126;37.876;2023-04-01T05:26:10;98855.16;;;1.86;64.74
67842;BME280;54642;59.126;37.876;2023-04-01T05:28:37;98856.97;;;1.95;64.52
67842;BME280;54642;59.126;37.876;2023-04-01T05:31:05;98815.03;;;1.74;64.63
67842;BME280;54642;59.126;37.876;2023-04-01T05:33:37;98845.84;;;1.86;64.37
67842;BME280;54642;59.126;37.876;2023-04-01T05:36:10;98869.06;;;2.13;63.97
67842;BME280;54642;59.126;37.876;2023-04-01T05:38:37;98864.00;;;2.16;64.37
67842;BME280;54642;59.126;37.876;2023-04-01T05:41:06;98853.81;;;2.19;63.81
67842;BME280;54642;59.126;37.876;2023-04-01T05:43:37;98746.00;;;1.65;63.89
67842;BME280;54642;59.126;37.876;2023-04-01T05:46:22;98844.44;;;2.19;63.94
67842;BME280;54642;59.126;37.876;2023-04-01T05:48:54;98832.59;;;2.27;63.97
67842;BME280;54642;59.126;37.876;2023-04-01T05:51:23;98844.72;;;2.53;63.73
67842;BME280;54642;59.126;37.876;2023-04-01T05:53:49;98863.72;;;2.84;63.42
67842;BME280;54642;59.126;37.876;2023-04-01T05:56:16;98853.50;;;2.84;63.29
67842;BME280;54642;59.126;37.876;2023-04-01T05:58:53;98845.88;;;2.98;63.19
67842;BME280;54642;59.126;37.876;2023-04-01T06:01:21;98864.78;;;3.17;62.79
67842;BME280;54642;59.126;37.876;2023-04-01T06:03:47;98804.81;;;2.78;62.47
67842;BME280;54642;59.126;37.876;2023-04-01T06:06:22;98857.94;;;3.18;62.29
67842;BME280;54642;59.126;37.876;2023-04-01T06:08:49;98845.94;;;3.08;62.48
67842;BME280;54642;59.126;37.876;2023-04-01T06:11:22;98875.97;;;3.36;62.06
67842;BME280;54642;59.126;37.876;2023-04-01T06:23:14;98857.13;;;3.23;61.78
67842;BME280;54642;59.126;37.876;2023-04-01T06:26:08;98861.38;;;3.18;61.85
67842;BME280;54642;59.126;37.876;2023-04-01T06:32:04;98859.84;;;3.60;61.39
67842;BME280;54642;59.126;37.876;2023-04-01T06:52:33;98854.81;;;5.14;59.41
67842;BME280;54642;59.126;37.876;2023-04-01T06:55:44;98832.53;;;5.33;59.11
67842;BME280;54642;59.126;37.876;2023-04-01T06:58:29;98854.69;;;5.62;58.85
67842;BME280;54642;59.126;37.876;2023-04-01T07:01:00;98839.38;;;5.31;58.50
67842;BME280;54642;59.126;37.876;2023-04-01T07:03:40;98842.78;;;5.27;58.76
67842;BME280;54642;59.126;37.876;2023-04-01T07:06:16;98807.75;;;5.08;58.81
67842;BME280;54642;59.126;37.876;2023-04-01T07:08:53;98865.03;;;5.42;58.95
67842;BME280;54642;59.126;37.876;2023-04-01T07:11:38;98858.03;;;5.77;58.80
67842;BME280;54642;59.126;37.876;2023-04-01T07:14:41;98766.47;;;5.57;58.23
67842;BME280;54642;59.126;37.876;2023-04-01T07:17:23;98850.94;;;6.20;57.34
67842;BME280;54642;59.126;37.876;2023-04-01T07:19:57;98842.47;;;6.07;57.47
67842;BME280;54642;59.126;37.876;2023-04-01T07:25:13;98853.44;;;6.36;57.83
67842;BME280;54642;59.126;37.876;2023-04-01T07:27:41;98810.69;;;6.18;56.99
67842;BME280;54642;59.126;37.876;2023-04-01T07:30:15;98855.84;;;6.53;56.80
67842;BME280;54642;59.126;37.876;2023-04-01T07:33:13;98859.00;;;6.89;56.63
67842;BME280;54642;59.126;37.876;2023-04-01T07:36:06;98817.34;;;7.32;55.99
67842;BME280;54642;59.126;37.876;2023-04-01T07:38:47;98871.69;;;7.83;55.60
67842;BME280;54642;59.126;37.876;2023-04-01T07:41:42;98854.25;;;8.02;55.01
67842;BME280;54642;59.126;37.876;2023-04-01T07:52:44;98862.94;;;7.96;54.48
67842;BME280;54642;59.126;37.876;2023-04-01T07:55:24;98856.66;;;8.14;54.63
67842;BME280;54642;59.126;37.876;2023-04-01T08:00:36;98861.31;;;7.89;54.02
67842;BME280;54642;59.126;37.876;2023-04-01T08:03:34;98871.53;;;7.95;53.16
67842;BME280;54642;59.126;37.876;2023-04-01T08:06:30;98862.75;;;8.09;53.12
67842;BME280;54642;59.126;37.876;2023-04-01T08:09:29;98861.53;;;8.34;53.03
67842;BME280;54642;59.126;37.876;2023-04-01T08:16:09;98861.69;;;8.24;52.10
67842;BME280;54642;59.126;37.876;2023-04-01T08:21:43;98867.50;;;8.38;51.23
67842;BME280;54642;59.126;37.876;2023-04-01T08:24:27;98864.63;;;8.56;51.31
67842;BME280;54642;59.126;37.876;2023-04-01T08:26:57;98820.63;;;8.64;50.85
67842;BME280;54642;59.126;37.876;2023-04-01T08:29:36;98857.53;;;8.71;50.19
67842;BME280;54642;59.126;37.876;2023-04-01T08:32:15;98858.47;;;9.15;49.95
67842;BME280;54642;59.126;37.876;2023-04-01T08:34:48;98865.28;;;9.66;49.38
67842;BME280;54642;59.126;37.876;2023-04-01T08:37:32;98864.06;;;9.82;48.86
67842;BME280;54642;59.126;37.876;2023-04-01T08:40:16;98871.66;;;9.48;48.31
67842;BME280;54642;59.126;37.876;2023-04-01T08:43:04;98872.09;;;9.70;48.83
67842;BME280;54642;59.126;37.876;2023-04-01T08:45:56;98867.28;;;9.92;47.72
67842;BME280;54642;59.126;37.876;2023-04-01T08:54:21;98867.56;;;10.20;47.56
67842;BME280;54642;59.126;37.876;2023-04-01T08:57:15;98835.53;;;10.23;46.80
67842;BME280;54642;59.126;37.876;2023-04-01T09:09:10;98837.44;;;9.33;45.54
67842;BME280;54642;59.126;37.876;2023-04-01T09:15:02;98864.50;;;9.15;46.28
67842;BME280;54642;59.126;37.876;2023-04-01T09:36:04;98878.53;;;9.49;46.45
67842;BME280;54642;59.126;37.876;2023-04-01T09:41:39;98888.28;;;9.34;45.68
67842;BME280;54642;59.126;37.876;2023-04-01T09:52:57;98887.56;;;9.73;45.39
67842;BME280;54642;59.126;37.876;2023-04-01T10:01:36;98877.56;;;9.54;44.79
67842;BME280;54642;59.126;37.876;2023-04-01T10:15:34;98885.50;;;10.28;44.61
67842;BME280;54642;59.126;37.876;2023-04-01T10:19:03;98874.78;;;10.06;44.18
67842;BME280;54642;59.126;37.876;2023-04-01T10:21:37;98899.28;;;9.89;44.12
67842;BME280;54642;59.126;37.876;2023-04-01T10:27:29;98845.13;;;10.57;44.02
67842;BME280;54642;59.126;37.876;2023-04-01T10:49:10;98886.78;;;10.49;44.73
67842;BME280;54642;59.126;37.876;2023-04-01T11:13:43;98860.94;;;11.48;43.08
67842;BME280;54642;59.126;37.876;2023-04-01T11:32:34;98918.31;;;11.35;42.48
67842;BME280;54642;59.126;37.876;2023-04-01T12:02:33;98927.13;;;11.62;41.66
67842;BME280;54642;59.126;37.876;2023-04-01T12:24:25;98961.06;;;10.86;42.02
67842;BME280;54642;59.126;37.876;2023-04-01T12:38:55;98972.03;;;10.58;41.53
67842;BME280;54642;59.126;37.876;2023-04-01T12:41:33;98964.31;;;10.94;42.49
67842;BME280;54642;59.126;37.876;2023-04-01T12:47:11;98967.91;;;11.57;41.13
67842;BME280;54642;59.126;37.876;2023-04-01T12:55:25;98979.34;;;10.78;41.42
67842;BME280;54642;59.126;37.876;2023-04-01T13:09:08;98987.25;;;10.74;41.00
67842;BME280;54642;59.126;37.876;2023-04-01T13:15:16;98994.59;;;10.53;41.35
67842;BME280;54642;59.126;37.876;2023-04-01T13:18:03;98996.91;;;10.67;41.19
67842;BME280;54642;59.126;37.876;2023-04-01T13:29:04;98925.78;;;10.80;41.49
67842;BME280;54642;59.126;37.876;2023-04-01T13:31:53;98994.22;;;11.43;41.37
67842;BME280;54642;59.126;37.876;2023-04-01T13:43:02;98999.03;;;11.59;40.33
67842;BME280;54642;59.126;37.876;2023-04-01T14:10:46;99019.66;;;11.96;40.05
67842;BME280;54642;59.126;37.876;2023-04-01T14:23:51;99034.19;;;12.04;40.71
67842;BME280;54642;59.126;37.876;2023-04-01T14:32:56;99037.66;;;11.35;40.50
67842;BME280;54642;59.126;37.876;2023-04-01T14:35:33;98942.13;;;10.45;40.27
67842;BME280;54642;59.126;37.876;2023-04-01T14:49:17;99061.56;;;10.73;41.50
67842;BME280;54642;59.126;37.876;2023-04-01T14:51:47;99064.50;;;10.56;41.68
67842;BME280;54642;59.126;37.876;2023-04-01T14:54:36;99026.84;;;9.95;41.48
67842;BME280;54642;59.126;37.876;2023-04-01T14:57:23;99082.25;;;9.83;41.70
67842;BME280;54642;59.126;37.876;2023-04-01T14:59:54;99076.25;;;9.82;42.09
67842;BME280;54642;59.126;37.876;2023-04-01T15:10:42;99084.22;;;10.18;41.44
67842;BME280;54642;59.126;37.876;2023-04-01T15:21:18;99113.84;;;10.03;41.45
67842;BME280;54642;59.126;37.876;2023-04-01T15:34:50;99117.75;;;10.23;41.40
67842;BME280;54642;59.126;37.876;2023-04-01T15:43:03;99136.03;;;9.64;42.11
67842;BME280;54642;59.126;37.876;2023-04-01T15:53:37;99154.13;;;9.06;43.10
67842;BME280;54642;59.126;37.876;2023-04-01T16:01:59;99174.25;;;8.81;44.14
67842;BME280;54642;59.126;37.876;2023-04-01T16:04:38;99176.03;;;8.76;44.73
67842;BME280;54642;59.126;37.876;2023-04-01T16:16:04;99201.91;;;7.74;47.28
67842;BME280;54642;59.126;37.876;2023-04-01T16:18:59;99220.84;;;7.70;48.27
67842;BME280;54642;59.126;37.876;2023-04-01T16:32:31;99219.44;;;7.19;50.39
67842;BME280;54642;59.126;37.876;2023-04-01T16:37:52;99199.78;;;6.94;50.98
67842;BME280;54642;59.126;37.876;2023-04-01T16:40:41;99252.09;;;7.17;51.02
67842;BME280;54642;59.126;37.876;2023-04-01T16:46:05;99234.13;;;6.90;51.93
67842;BME280;54642;59.126;37.876;2023-04-01T16:49:04;99251.28;;;6.98;52.15
67842;BME280;54642;59.126;37.876;2023-04-01T16:55:08;99271.97;;;6.67;53.12
67842;BME280;54642;59.126;37.876;2023-04-01T16:57:56;99248.78;;;6.60;53.25
67842;BME280;54642;59.126;37.876;2023-04-01T17:00:53;99255.69;;;6.52;53.18
67842;BME280;54642;59.126;37.876;2023-04-01T17:03:42;99266.00;;;6.41;53.84
67842;BME280;54642;59.126;37.876;2023-04-01T17:07:01;99278.84;;;6.35;54.13
67842;BME280;54642;59.126;37.876;2023-04-01T17:09:39;99279.72;;;6.29;54.53
67842;BME280;54642;59.126;37.876;2023-04-01T17:12:20;99275.41;;;6.19;54.51
67842;BME280;54642;59.126;37.876;2023-04-01T17:14:54;99297.72;;;6.10;55.02
67842;BME280;54642;59.126;37.876;2023-04-01T17:17:37;99302.84;;;6.04;55.25
67842;BME280;54642;59.126;37.876;2023-04-01T17:20:26;99296.88;;;6.05;55.24
67842;BME280;54642;59.126;37.876;2023-04-01T17:34:43;99297.66;;;5.86;55.76
67842;BME280;54642;59.126;37.876;2023-04-01T17:40:59;99313.94;;;5.88;55.72
67842;BME280;54642;59.126;37.876;2023-04-01T17:43:50;99314.78;;;5.82;56.25
67842;BME280;54642;59.126;37.876;2023-04-01T17:51:59;99293.34;;;5.62;56.61
67842;BME280;54642;59.126;37.876;2023-04-01T18:03:13;99320.69;;;5.49;57.64
67842;BME280;54642;59.126;37.876;2023-04-01T18:06:01;99324.97;;;5.50;57.76
67842;BME280;54642;59.126;37.876;2023-04-01T18:19:18;99331.69;;;5.20;58.79
67842;BME280;54642;59.126;37.876;2023-04-01T18:21:53;99333.38;;;5.16;59.02
67842;BME280;54642;59.126;37.876;2023-04-01T18:24:31;99332.56;;;5.19;59.25
67842;BME280;54642;59.126;37.876;2023-04-01T18:29:49;99300.75;;;4.94;59.92
67842;BME280;54642;59.126;37.876;2023-04-01T18:32:31;99329.91;;;5.05;59.88
67842;BME280;54642;59.126;37.876;2023-04-01T18:40:32;99319.53;;;4.85;60.20
67842;BME280;54642;59.126;37.876;2023-04-01T18:43:18;99305.72;;;4.68;60.19
67842;BME280;54642;59.126;37.876;2023-04-01T18:45:57;99338.34;;;4.86;60.30
67842;BME280;54642;59.126;37.876;2023-04-01T18:51:28;99243.00;;;4.26;60.51
67842;BME280;54642;59.126;37.876;2023-04-01T18:56:48;99352.84;;;4.81;60.72
67842;BME280;54642;59.126;37.876;2023-04-01T18:59:24;99342.56;;;4.79;60.98
67842;BME280;54642;59.126;37.876;2023-04-01T19:01:57;99351.16;;;4.81;59.98
67842;BME280;54642;59.126;37.876;2023-04-01T19:09:52;99330.41;;;4.53;60.92
67842;BME280;54642;59.126;37.876;2023-04-01T19:18:26;99343.19;;;4.49;61.57
67842;BME280;54642;59.126;37.876;2023-04-01T19:32:22;99345.00;;;4.59;62.22
67842;BME280;54642;59.126;37.876;2023-04-01T19:37:39;99350.25;;;4.74;62.64
67842;BME280;54642;59.126;37.876;2023-04-01T19:43:02;99348.59;;;4.80;62.56
67842;BME280;54642;59.126;37.876;2023-04-01T19:48:15;99364.88;;;4.88;62.49
67842;BME280;54642;59.126;37.876;2023-04-01T19:51:03;99324.50;;;4.64;62.29
67842;BME280;54642;59.126;37.876;2023-04-01T19:53:41;99369.09;;;4.76;62.79
67842;BME280;54642;59.126;37.876;2023-04-01T19:56:16;99377.59;;;4.71;63.25
67842;BME280;54642;59.126;37.876;2023-04-01T19:59:00;99265.09;;;4.11;63.12
67842;BME280;54642;59.126;37.876;2023-04-01T20:01:51;99357.00;;;4.63;63.36
67842;BME280;54642;59.126;37.876;2023-04-01T20:04:33;99269.34;;;4.09;63.40
67842;BME280;54642;59.126;37.876;2023-04-01T20:07:09;99366.31;;;4.50;63.72
67842;BME280;54642;59.126;37.876;2023-04-01T20:09:48;99389.50;;;4.63;64.06
67842;BME280;54642;59.126;37.876;2023-04-01T20:12:30;99398.06;;;4.63;63.90
67842;BME280;54642;59.126;37.876;2023-04-01T20:15:04;99366.31;;;4.47;63.71
67842;BME280;54642;59.126;37.876;2023-04-01T20:17:47;99395.47;;;4.58;63.90
67842;BME280;54642;59.126;37.876;2023-04-01T20:20:20;99388.53;;;4.48;64.19
67842;BME280;54642;59.126;37.876;2023-04-01T20:25:57;99398.81;;;4.50;64.28
67842;BME280;54642;59.126;37.876;2023-04-01T20:28:49;99401.25;;;4.37;64.37
67842;BME280;54642;59.126;37.876;2023-04-01T20:31:28;99390.06;;;4.31;64.41
67842;BME280;54642;59.126;37.876;2023-04-01T20:34:26;99408.97;;;4.39;64.71
67842;BME280;54642;59.126;37.876;2023-04-01T20:45:59;99413.16;;;4.29;65.21
67842;BME280;54642;59.126;37.876;2023-04-01T20:48:56;99367.59;;;4.05;65.36
67842;BME280;54642;59.126;37.876;2023-04-01T20:51:31;99415.66;;;4.25;65.30
67842;BME280;54642;59.126;37.876;2023-04-01T20:54:29;99388.19;;;4.14;65.36
67842;BME280;54642;59.126;37.876;2023-04-01T21:02:48;99360.63;;;3.92;65.36
67842;BME280;54642;59.126;37.876;2023-04-01T21:08:49;99340.69;;;3.66;65.57
67842;BME280;54642;59.126;37.876;2023-04-01T21:11:39;99440.50;;;4.26;66.06
67842;BME280;54642;59.126;37.876;2023-04-01T21:20:04;99407.00;;;4.13;66.02
67842;BME280;54642;59.126;37.876;2023-04-01T21:24:53;99407.94;;;4.22;66.15
67842;BME280;54642;59.126;37.876;2023-04-01T21:27:41;99421.63;;;4.24;66.18
67842;BME280;54642;59.126;37.876;2023-04-01T21:41:52;99421.50;;;4.08;66.70
67842;BME280;54642;59.126;37.876;2023-04-01T21:44:31;99435.28;;;4.21;66.37
67842;BME280;54642;59.126;37.876;2023-04-01T21:58:10;99386.25;;;3.90;66.51
67842;BME280;54642;59.126;37.876;2023-04-01T22:14:40;99433.56;;;4.17;66.58
67842;BME280;54642;59.126;37.876;2023-04-01T22:19:52;99423.16;;;4.08;66.96
67842;BME280;54642;59.126;37.876;2023-04-01T22:25:12;99415.44;;;4.03;66.82
67842;BME280;54642;59.126;37.876;2023-04-01T22:27:47;99444.56;;;4.11;67.00
67842;BME280;54642;59.126;37.876;2023-04-01T22:30:24;99377.44;;;3.65;67.15
67842;BME280;54642;59.126;37.876;2023-04-01T22:33:02;99449.69;;;4.08;67.30
67842;BME280;54642;59.126;37.876;2023-04-01T22:41:32;99456.75;;;4.28;67.07
67842;BME280;54642;59.126;37.876;2023-04-01T22:44:03;99453.44;;;4.39;66.40
67842;BME280;54642;59.126;37.876;2023-04-01T22:49:32;99428.25;;;4.03;67.15
67842;BME280;54642;59.126;37.876;2023-04-01T22:54:53;99443.56;;;3.98;67.69
67842;BME280;54642;59.126;37.876;2023-04-01T23:00:10;99466.88;;;4.18;67.47
67842;BME280;54642;59.126;37.876;2023-04-01T23:02:42;99398.84;;;3.70;67.45
67842;BME280;54642;59.126;37.876;2023-04-01T23:05:13;99443.59;;;4.00;67.67
67842;BME280;54642;59.126;37.876;2023-04-01T23:07:58;99449.59;;;3.99;67.37
67842;BME280;54642;59.126;37.876;2023-04-01T23:10:36;99478.81;;;4.13;67.48
67842;BME280;54642;59.126;37.876;2023-04-01T23:13:05;99471.13;;;4.15;67.02
67842;BME280;54642;59.126;37.876;2023-04-01T23:15:37;99445.28;;;3.96;67.11
67842;BME280;54642;59.126;37.876;2023-04-01T23:18:11;99448.66;;;3.92;67.53
67842;BME280;54642;59.126;37.876;2023-04-01T23:23:58;99476.16;;;4.07;67.65
67842;BME280;54642;59.126;37.876;2023-04-01T23:26:39;99433.06;;;3.77;67.50
67842;BME280;54642;59.126;37.876;2023-04-01T23:29:13;99458.94;;;3.97;67.64
67842;BME280;54642;59.126;37.876;2023-04-01T23:31:45;99370.41;;;3.52;67.38